Time;durP1;ratioP1;P1;durP2;ratioP2;P2;SDS_P1;SDS_P2;PMS_P1;PMS_P2;Temp;Humidity;BMP_temperature;BMP_pressure;BME280_temperature;BME280_humidity;BME280_pressure;Samples;Min_cycle;Max_cycle;Signal;HPM_P1;HPM_P2
2022/12/17 13:06:49;;;;;;;16.90;10.45;;;;;;;11.97;100.00;93115.22;5089130;28;20051;-72
2022/12/17 13:09:30;;;;;;;22.73;13.27;;;;;;;12.02;100.00;93128.22;5089178;28;20048;-73
2022/12/17 13:12:15;;;;;;;18.55;12.18;;;;;;;12.04;100.00;93123.66;5089178;28;20040;-72
2022/12/17 13:14:48;;;;;;;18.38;11.38;;;;;;;12.05;100.00;93127.81;5092776;28;20077;-72
2022/12/17 13:17:28;;;;;;;21.23;14.27;;;;;;;12.10;100.00;93127.94;5092772;28;20048;-72
2022/12/17 13:20:18;;;;;;;19.00;10.43;;;;;;;12.04;100.00;93139.13;5092705;28;20048;-72
2022/12/17 13:22:50;;;;;;;20.05;10.68;;;;;;;12.02;100.00;93134.16;5092235;28;20548;-72
2022/12/17 13:25:19;;;;;;;19.33;11.13;;;;;;;12.01;100.00;93129.22;5093001;28;20044;-72
2022/12/17 13:27:46;;;;;;;20.48;11.70;;;;;;;12.05;100.00;93134.75;5092935;28;20043;-72
2022/12/17 13:30:31;;;;;;;20.90;11.35;;;;;;;12.08;100.00;93140.22;5092996;28;20113;-72
2022/12/17 13:33:21;;;;;;;19.55;12.13;;;;;;;12.12;100.00;93149.09;5080944;28;20094;-72
2022/12/17 13:36:02;;;;;;;31.05;19.35;;;;;;;12.14;100.00;93151.44;5079230;28;20048;-72
2022/12/17 13:38:36;;;;;;;23.67;15.35;;;;;;;12.08;100.00;93145.38;5091535;28;20442;-72
2022/12/17 13:41:07;;;;;;;15.90;10.82;;;;;;;11.97;100.00;93131.44;5092700;28;20052;-72
2022/12/17 13:43:42;;;;;;;16.65;11.68;;;;;;;11.95;100.00;93141.16;5092187;28;20044;-72
2022/12/17 13:46:18;;;;;;;26.45;13.05;;;;;;;11.88;100.00;93135.34;5092492;28;20094;-72
2022/12/17 13:48:52;;;;;;;21.75;14.55;;;;;;;11.90;100.00;93149.56;5092624;28;20060;-72
2022/12/17 13:51:21;;;;;;;24.25;14.98;;;;;;;11.92;100.00;93145.97;5092536;28;20052;-72
2022/12/17 13:53:53;;;;;;;17.58;13.05;;;;;;;11.77;100.00;93117.06;5092520;28;20040;-72
2022/12/17 13:56:23;;;;;;;20.15;12.52;;;;;;;11.98;100.00;93143.31;5092339;28;20040;-72
2022/12/17 13:58:52;;;;;;;34.47;22.27;;;;;;;11.98;100.00;93138.16;5092523;28;20044;-72
2022/12/17 14:01:19;;;;;;;78.25;52.90;;;;;;;12.03;100.00;93145.22;5092156;28;20097;-72
2022/12/17 14:03:51;;;;;;;31.10;21.77;;;;;;;11.98;100.00;93133.00;5092067;28;20048;-72
2022/12/17 14:06:19;;;;;;;27.40;14.80;;;;;;;12.13;100.00;93160.94;5091894;28;20043;-72
2022/12/17 14:08:47;;;;;;;24.67;14.43;;;;;;;12.16;100.00;93164.88;5092203;28;20056;-72
2022/12/17 14:13:59;;;;;;;26.58;15.60;;;;;;;12.15;100.00;93165.88;5092230;28;20066;-72
2022/12/17 14:16:26;;;;;;;33.65;17.67;;;;;;;12.13;100.00;93158.38;5091792;28;20036;-72
2022/12/17 14:18:56;;;;;;;36.40;18.27;;;;;;;12.13;100.00;93170.47;5091810;28;20059;-72
2022/12/17 14:21:26;;;;;;;35.40;17.38;;;;;;;12.13;100.00;93170.47;5091605;28;20094;-72
2022/12/17 14:23:55;;;;;;;35.53;19.70;;;;;;;12.12;100.00;93167.09;5090697;28;20052;-72
2022/12/17 14:26:21;;;;;;;42.10;22.30;;;;;;;12.07;100.00;93168.78;5092011;28;20044;-72
2022/12/17 14:28:50;;;;;;;71.63;38.90;;;;;;;12.10;100.00;93169.13;5091939;28;20059;-72
2022/12/17 14:31:20;;;;;;;47.53;26.63;;;;;;;12.20;100.00;93176.31;5091488;28;20052;-72
2022/12/17 14:33:47;;;;;;;40.92;23.83;;;;;;;12.25;100.00;93181.59;5079720;28;20500;-72
2022/12/17 14:36:21;;;;;;;44.28;24.02;;;;;;;12.32;100.00;93180.72;5087246;28;20048;-72
2022/12/17 14:38:54;;;;;;;40.97;22.05;;;;;;;12.36;100.00;93192.91;5091836;28;20044;-72
2022/12/17 14:44:06;;;;;;;22.13;12.68;;;;;;;12.18;100.00;93172.38;5091550;28;20059;-72
2022/12/17 14:46:34;;;;;;;27.98;16.60;;;;;;;12.25;100.00;93201.41;5091652;28;20093;-72
2022/12/17 14:49:04;;;;;;;24.67;14.48;;;;;;;12.28;100.00;93200.97;5091414;28;20557;-72
2022/12/17 14:51:36;;;;;;;32.22;17.70;;;;;;;12.10;100.00;93184.56;5091279;28;20055;-72
2022/12/17 14:54:07;;;;;;;27.25;15.57;;;;;;;12.20;100.00;93211.56;5091587;28;20065;-72
2022/12/17 14:56:34;;;;;;;32.22;16.98;;;;;;;12.08;100.00;93198.69;5091096;28;20516;-72
2022/12/17 14:59:01;;;;;;;30.23;18.50;;;;;;;12.11;100.00;93206.75;5091442;28;20061;-72
2022/12/17 15:01:28;;;;;;;24.65;12.77;;;;;;;11.91;100.00;93183.81;5091099;28;20044;-72
2022/12/17 15:03:55;;;;;;;28.27;17.45;;;;;;;11.88;100.00;93186.81;5077802;28;20161;-72
2022/12/17 15:06:22;;;;;;;34.38;18.33;;;;;;;12.07;100.00;93215.13;5086855;28;20051;-72
2022/12/17 15:08:52;;;;;;;23.42;14.48;;;;;;;12.02;100.00;93216.53;5082572;28;20048;-72
2022/12/17 15:11:20;;;;;;;31.50;19.70;;;;;;;11.81;100.00;93201.56;5090899;28;20427;-72
2022/12/17 15:13:47;;;;;;;30.73;18.17;;;;;;;11.87;100.00;93223.84;5091151;28;20048;-72
2022/12/17 15:16:14;;;;;;;19.13;10.43;;;;;;;11.75;100.00;93223.78;5090819;28;20044;-72
2022/12/17 15:18:41;;;;;;;17.63;10.05;;;;;;;11.74;100.00;93232.50;5091065;28;20044;-72
2022/12/17 15:21:11;;;;;;;18.75;11.43;;;;;;;11.74;100.00;93230.72;5090601;28;20504;-72
2022/12/17 15:23:46;;;;;;;23.90;13.15;;;;;;;11.73;100.00;93229.16;5090846;28;20076;-72
2022/12/17 15:26:16;;;;;;;25.08;13.13;;;;;;;11.69;100.00;93235.75;5090348;28;20051;-72
2022/12/17 15:28:43;;;;;;;46.97;24.23;;;;;;;11.54;100.00;93207.81;5090542;28;20127;-72
2022/12/17 15:31:11;;;;;;;59.97;28.52;;;;;;;11.68;100.00;93236.75;5090830;28;20052;-72
2022/12/17 15:33:38;;;;;;;50.67;27.38;;;;;;;11.64;100.00;93227.88;5090481;28;20044;-72
2022/12/17 15:36:05;;;;;;;49.88;27.05;;;;;;;11.56;100.00;93228.94;5085714;28;20467;-72
2022/12/17 15:38:32;;;;;;;47.50;25.95;;;;;;;11.47;100.00;93213.03;5080722;28;20515;-72
2022/12/17 15:40:59;;;;;;;46.83;26.58;;;;;;;11.59;100.00;93230.31;5090553;28;20043;-72
2022/12/17 15:43:26;;;;;;;50.67;25.15;;;;;;;11.52;100.00;93225.22;5081179;28;20089;-72
2022/12/17 15:45:53;;;;;;;42.45;22.90;;;;;;;11.49;100.00;93220.53;5090102;28;20040;-73
2022/12/17 15:48:22;;;;;;;44.50;26.27;;;;;;;11.47;100.00;93222.50;5090409;28;20056;-73
2022/12/17 15:50:49;;;;;;;42.58;23.98;;;;;;;11.45;100.00;93220.19;5090387;28;20138;-72
2022/12/17 15:53:15;;;;;;;49.50;28.70;;;;;;;11.41;100.00;93218.22;5090380;28;20048;-72
2022/12/17 15:55:42;;;;;;;62.40;33.92;;;;;;;11.14;100.00;93196.16;5090342;28;20094;-72
2022/12/17 15:58:10;;;;;;;37.85;22.95;;;;;;;11.23;100.00;93220.59;5090206;28;20457;-72
2022/12/17 16:00:38;;;;;;;58.10;34.67;;;;;;;11.19;100.00;93226.34;5089757;28;20047;-72
2022/12/17 16:03:05;;;;;;;47.97;29.63;;;;;;;11.16;100.00;93231.94;5089845;28;20553;-72
2022/12/17 16:05:32;;;;;;;49.45;30.40;;;;;;;11.14;100.00;93234.72;5090250;28;20048;-72
2022/12/17 16:08:01;;;;;;;37.33;22.30;;;;;;;11.13;100.00;93240.06;5089828;28;20121;-72
2022/12/17 16:10:27;;;;;;;31.05;17.75;;;;;;;11.12;100.00;93244.44;5087018;28;20052;-72
2022/12/17 16:12:54;;;;;;;27.40;16.10;;;;;;;11.13;100.00;93250.34;5087483;28;20075;-72
2022/12/17 16:15:21;;;;;;;21.38;12.40;;;;;;;11.12;100.00;93251.34;5089343;28;20052;-72
2022/12/17 16:17:49;;;;;;;36.55;21.77;;;;;;;11.15;100.00;93258.66;5089549;28;20044;-72
2022/12/17 16:20:16;;;;;;;49.13;29.58;;;;;;;10.98;100.00;93266.09;5089794;28;20044;-72
2022/12/17 16:22:43;;;;;;;31.25;18.73;;;;;;;10.90;100.00;93269.72;5089700;28;20458;-72
2022/12/17 16:25:10;;;;;;;23.90;13.85;;;;;;;10.86;100.00;93266.78;5089487;28;20044;-72
2022/12/17 16:27:36;;;;;;;22.23;13.02;;;;;;;10.66;100.00;93241.22;5089622;28;20133;-72
2022/12/17 16:30:03;;;;;;;21.02;14.68;;;;;;;10.87;100.00;93265.00;5089648;28;20084;-72
2022/12/17 16:32:32;;;;;;;18.75;12.25;;;;;;;10.91;100.00;93268.72;5089833;28;20051;-72
2022/12/17 16:35:00;;;;;;;20.77;14.05;;;;;;;10.95;100.00;93269.88;5089636;28;20044;-72
2022/12/17 16:37:27;;;;;;;25.73;14.63;;;;;;;10.92;100.00;93265.16;5089093;28;20578;-73
2022/12/17 16:39:53;;;;;;;33.20;17.98;;;;;;;11.06;100.00;93270.97;5089463;28;20094;-73
2022/12/17 16:42:20;;;;;;;35.30;21.02;;;;;;;11.12;100.00;93284.75;5089425;28;20103;-72
2022/12/17 16:44:47;;;;;;;29.98;17.85;;;;;;;11.12;100.00;93280.41;5089601;28;20075;-72
2022/12/17 16:47:13;;;;;;;40.38;22.80;;;;;;;11.12;100.00;93285.56;5088353;28;20470;-72
2022/12/17 16:49:40;;;;;;;47.78;25.33;;;;;;;11.15;100.00;93292.06;5089497;28;20055;-72
2022/12/17 16:52:08;;;;;;;70.80;30.38;;;;;;;11.10;100.00;93290.09;5089253;28;20048;-72
2022/12/17 16:54:35;;;;;;;88.93;38.28;;;;;;;11.09;100.00;93291.91;5088892;28;20055;-72
2022/12/17 16:57:02;;;;;;;63.85;28.67;;;;;;;11.09;100.00;93299.63;5089280;28;20048;-72
2022/12/17 16:59:29;;;;;;;42.28;27.60;;;;;;;11.06;100.00;93294.13;5089015;28;20044;-72
2022/12/17 17:01:56;;;;;;;37.40;23.10;;;;;;;11.12;100.00;93310.47;5088944;28;20040;-72
2022/12/17 17:04:23;;;;;;;87.97;38.70;;;;;;;10.97;100.00;93319.28;5089371;28;20048;-72
2022/12/17 17:06:52;;;;;;;41.03;21.48;;;;;;;10.88;100.00;93313.59;5088833;28;20097;-72
2022/12/17 17:09:21;;;;;;;44.90;23.85;;;;;;;10.85;100.00;93314.03;5088920;28;20439;-72
2022/12/17 17:11:48;;;;;;;71.03;40.10;;;;;;;10.66;100.00;93284.91;5089168;28;20040;-72
2022/12/17 17:14:15;;;;;;;42.53;24.33;;;;;;;10.81;100.00;93321.38;5088855;28;20052;-72
2022/12/17 17:16:41;;;;;;;38.65;23.05;;;;;;;10.82;100.00;93325.50;5088740;28;20048;-73
2022/12/17 17:19:08;;;;;;;35.38;23.60;;;;;;;10.79;100.00;93325.16;5089233;28;20052;-72
2022/12/17 17:21:36;;;;;;;49.20;29.55;;;;;;;10.77;100.00;93329.69;5088992;28;20427;-72
2022/12/17 17:24:06;;;;;;;73.32;41.67;;;;;;;10.76;100.00;93334.06;5088927;28;20044;-72
2022/12/17 17:26:35;;;;;;;78.68;45.70;;;;;;;10.69;100.00;93338.44;5088843;28;20419;-72
2022/12/17 17:29:02;;;;;;;41.58;24.95;;;;;;;10.43;100.00;93342.72;5089103;28;20040;-72
2022/12/17 17:31:29;;;;;;;46.42;27.23;;;;;;;10.33;100.00;93342.34;5088424;28;20056;-72
2022/12/17 17:33:56;;;;;;;55.22;29.67;;;;;;;10.19;100.00;93341.63;5088279;28;20496;-72
2022/12/17 17:36:24;;;;;;;93.78;47.70;;;;;;;10.18;100.00;93342.59;5088485;28;20102;-72
2022/12/17 17:38:52;;;;;;;301.08;129.27;;;;;;;10.19;100.00;93350.13;5088860;28;20048;-72
2022/12/17 17:41:22;;;;;;;86.38;46.13;;;;;;;10.19;100.00;93347.53;5086596;28;20056;-72
2022/12/17 17:43:54;;;;;;;68.25;38.70;;;;;;;10.12;100.00;93346.75;5073597;28;20105;-72
2022/12/17 17:46:22;;;;;;;68.97;41.08;;;;;;;10.18;100.00;93356.22;5087105;28;20047;-72
2022/12/17 17:48:49;;;;;;;74.47;44.38;;;;;;;10.14;100.00;93362.78;5088824;28;20101;-72
2022/12/17 17:51:17;;;;;;;59.22;36.83;;;;;;;10.13;100.00;93353.47;5088422;28;20044;-72
2022/12/17 17:53:45;;;;;;;82.63;51.45;;;;;;;10.03;100.00;93364.97;5088831;28;20040;-72
2022/12/17 17:56:15;;;;;;;71.10;46.80;;;;;;;10.06;100.00;93358.66;5088096;28;20044;-72
2022/12/17 17:58:42;;;;;;;83.97;56.88;;;;;;;9.98;100.00;93374.25;5088767;28;20044;-72
2022/12/17 18:01:12;;;;;;;70.00;48.83;;;;;;;9.87;100.00;93365.41;5092047;28;20557;-72
2022/12/17 18:03:39;;;;;;;90.28;58.53;;;;;;;9.87;100.00;93378.22;5089357;28;20052;-72
2022/12/17 18:06:07;;;;;;;441.95;259.48;;;;;;;9.65;100.00;93369.97;5092158;28;20516;-72
2022/12/17 18:08:35;;;;;;;155.45;95.97;;;;;;;9.66;100.00;93384.38;5092171;28;20044;-72
2022/12/17 18:11:04;;;;;;;112.95;71.97;;;;;;;9.65;100.00;93387.91;5091957;28;20056;-72
2022/12/17 18:16:17;;;;;;;77.60;54.15;;;;;;;9.62;100.00;93401.94;5091797;28;20062;-72
2022/12/17 18:18:44;;;;;;;76.53;52.00;;;;;;;9.61;100.00;93401.16;5091918;28;20545;-72
2022/12/17 18:21:13;;;;;;;57.58;37.45;;;;;;;9.55;100.00;93413.97;5091880;28;20381;-72
2022/12/17 18:23:41;;;;;;;56.10;38.92;;;;;;;9.43;100.00;93401.75;5092011;28;20450;-72
2022/12/17 18:26:09;;;;;;;52.97;38.95;;;;;;;9.42;100.00;93407.06;5091874;28;20110;-72
2022/12/17 18:28:36;;;;;;;35.95;26.25;;;;;;;9.40;100.00;93419.31;5092190;28;20098;-72
2022/12/17 18:31:08;;;;;;;35.40;25.15;;;;;;;9.31;100.00;93416.16;5091706;28;20157;-72
2022/12/17 18:33:38;;;;;;;36.08;24.10;;;;;;;9.25;100.00;93422.84;5091530;28;20097;-72
2022/12/17 18:36:10;;;;;;;43.95;28.98;;;;;;;9.14;100.00;93416.53;5091749;28;20450;-72
2022/12/17 18:38:37;;;;;;;51.58;33.42;;;;;;;9.16;100.00;93418.91;5091331;28;20135;-72
2022/12/17 18:43:22;;;;;;;60.38;36.70;;;;;;;9.05;100.00;93412.56;5091767;28;20089;-72
2022/12/17 18:43:56;;;;;;;47.10;29.48;;;;;;;9.09;100.00;93419.66;5091415;28;20130;-72
2022/12/17 18:46:23;;;;;;;50.70;29.05;;;;;;;9.10;100.00;93435.84;5091207;28;20126;-72
2022/12/17 18:48:52;;;;;;;36.97;25.73;;;;;;;9.02;100.00;93436.03;5091478;28;20511;-72
2022/12/17 18:51:20;;;;;;;37.63;24.13;;;;;;;9.01;100.00;93449.78;5091464;28;20048;-72
2022/12/17 18:53:46;;;;;;;36.67;26.45;;;;;;;9.01;100.00;93453.16;5091213;28;20514;-72
2022/12/17 18:56:13;;;;;;;47.72;29.63;;;;;;;8.99;100.00;93454.34;5091435;28;20496;-72
2022/12/17 18:58:40;;;;;;;46.13;29.52;;;;;;;8.95;100.00;93457.28;5091289;28;20036;-72
2022/12/17 19:01:07;;;;;;;59.58;40.55;;;;;;;8.82;100.00;93452.13;5091213;28;20411;-72
2022/12/17 19:03:34;;;;;;;56.17;37.03;;;;;;;8.69;100.00;93442.63;5090727;28;20040;-72
2022/12/17 19:06:06;;;;;;;64.07;41.38;;;;;;;8.73;100.00;93459.19;5091506;28;20040;-72
2022/12/17 19:08:35;;;;;;;66.75;44.13;;;;;;;8.71;100.00;93458.59;5090697;28;20085;-72
2022/12/17 19:11:05;;;;;;;61.20;38.72;;;;;;;8.68;100.00;93467.44;5090507;28;20132;-72
2022/12/17 19:13:32;;;;;;;64.22;42.38;;;;;;;8.76;100.00;93478.50;5090649;28;20135;-72
2022/12/17 19:16:05;;;;;;;69.78;45.83;;;;;;;8.76;100.00;93483.63;5091149;28;20100;-72
2022/12/17 19:18:32;;;;;;;64.43;41.65;;;;;;;8.75;100.00;93482.81;5078670;28;21364;-72
2022/12/17 19:20:59;;;;;;;56.30;38.00;;;;;;;7.99;100.00;93369.25;5091029;28;20098;-72
2022/12/17 19:23:31;;;;;;;64.50;40.03;;;;;;;8.65;100.00;93477.25;5090778;28;20048;-72
2022/12/17 19:26:04;;;;;;;71.53;40.53;;;;;;;8.53;100.00;93465.00;5090375;28;20080;-72
2022/12/17 19:28:31;;;;;;;81.03;42.67;;;;;;;8.63;100.00;93495.41;5090852;28;20453;-72
2022/12/17 19:30:57;;;;;;;72.53;37.75;;;;;;;8.57;100.00;93492.81;5089988;28;20048;-72
2022/12/17 19:33:24;;;;;;;90.55;49.80;;;;;;;8.43;100.00;93482.47;5090458;28;20583;-72
2022/12/17 19:35:51;;;;;;;58.70;35.95;;;;;;;8.27;100.00;93509.16;5089980;28;20105;-72
2022/12/17 19:38:18;;;;;;;70.30;41.05;;;;;;;8.29;100.00;93505.41;5090553;28;20048;-71
2022/12/17 19:40:50;;;;;;;72.00;44.17;;;;;;;8.19;100.00;93506.75;5090066;28;20529;-72
2022/12/17 19:43:17;;;;;;;71.30;44.40;;;;;;;8.09;100.00;93487.38;5090545;28;20496;-71
2022/12/17 19:45:44;;;;;;;85.13;50.50;;;;;;;8.16;100.00;93498.44;5090251;28;20040;-72
2022/12/17 19:48:13;;;;;;;86.72;50.42;;;;;;;8.13;100.00;93496.28;5079097;28;20449;-72
2022/12/17 19:50:40;;;;;;;79.72;49.83;;;;;;;8.11;100.00;93500.78;5084529;28;20040;-72
2022/12/17 19:53:06;;;;;;;84.07;50.35;;;;;;;8.07;100.00;93493.66;5089762;28;20052;-72
2022/12/17 19:55:33;;;;;;;92.03;53.17;;;;;;;8.09;100.00;93505.28;5089899;28;20040;-72
2022/12/17 19:58:01;;;;;;;81.68;48.95;;;;;;;8.09;100.00;93504.50;5089877;28;20044;-72
2022/12/17 20:00:28;;;;;;;86.28;53.30;;;;;;;8.05;100.00;93503.31;5089656;28;20089;-72
2022/12/17 20:02:54;;;;;;;94.10;53.30;;;;;;;7.94;100.00;93505.41;5089925;28;20094;-72
2022/12/17 20:05:21;;;;;;;101.85;60.80;;;;;;;7.83;100.00;93491.34;5089654;28;20101;-72
2022/12/17 20:07:48;;;;;;;97.65;58.10;;;;;;;7.97;100.00;93519.59;5090087;28;20412;-72
2022/12/17 20:10:15;;;;;;;89.32;53.80;;;;;;;7.97;100.00;93517.81;5089666;28;20079;-72
2022/12/17 20:12:41;;;;;;;94.82;57.67;;;;;;;7.93;100.00;93519.16;5089996;28;20423;-72
2022/12/17 20:15:10;;;;;;;89.90;56.10;;;;;;;7.84;100.00;93527.94;5089839;28;20446;-72
2022/12/17 20:17:37;;;;;;;88.03;54.47;;;;;;;7.73;100.00;93519.00;5089584;28;20048;-72
2022/12/17 20:20:04;;;;;;;91.07;57.30;;;;;;;7.79;100.00;93540.50;5089822;28;20040;-72
2022/12/17 20:22:31;;;;;;;82.20;51.85;;;;;;;7.73;100.00;93544.59;5088887;28;20051;-72
2022/12/17 20:25:00;;;;;;;76.63;47.33;;;;;;;7.73;100.00;93547.13;5089531;28;20044;-72
2022/12/17 20:27:26;;;;;;;82.00;49.03;;;;;;;7.77;100.00;93545.78;5089632;28;20404;-72
2022/12/17 20:29:53;;;;;;;90.00;53.03;;;;;;;7.76;100.00;93549.31;5089280;28;20044;-72
2022/12/17 20:32:21;;;;;;;85.28;50.65;;;;;;;7.76;100.00;93546.75;5089106;28;20508;-72
2022/12/17 20:34:48;;;;;;;103.43;62.28;;;;;;;7.74;100.00;93546.94;5089376;28;20089;-72
2022/12/17 20:37:15;;;;;;;102.53;61.40;;;;;;;7.72;100.00;93553.19;5089216;28;20048;-72
2022/12/17 20:39:41;;;;;;;136.15;73.95;;;;;;;7.68;100.00;93555.34;5089338;28;20048;-72
2022/12/17 20:42:09;;;;;;;99.15;57.17;;;;;;;7.69;100.00;93562.03;5089395;28;20076;-72
2022/12/17 20:44:35;;;;;;;82.95;50.28;;;;;;;7.74;100.00;93562.28;5089458;28;20089;-72
2022/12/17 20:47:03;;;;;;;78.30;48.90;;;;;;;7.76;100.00;93562.09;5089190;28;20055;-72
2022/12/17 20:49:31;;;;;;;68.78;46.13;;;;;;;7.86;100.00;93564.34;5089419;28;20052;-72
2022/12/17 20:51:58;;;;;;;78.93;50.95;;;;;;;7.94;100.00;93571.09;5088871;28;20079;-72
2022/12/17 20:54:24;;;;;;;83.65;53.92;;;;;;;7.95;100.00;93572.69;5089382;28;20101;-72
2022/12/17 20:56:51;;;;;;;74.38;46.58;;;;;;;8.00;100.00;93571.16;5089118;28;20052;-72
2022/12/17 20:59:19;;;;;;;70.85;47.70;;;;;;;8.08;100.00;93575.38;5089228;28;20048;-71
2022/12/17 21:01:47;;;;;;;58.47;38.58;;;;;;;8.21;100.00;93587.47;5088950;28;20555;-72
2022/12/17 21:04:15;;;;;;;67.18;42.38;;;;;;;8.24;100.00;93591.44;5088798;28;20040;-72
2022/12/17 21:06:45;;;;;;;68.07;45.72;;;;;;;8.28;100.00;93585.75;5089214;28;20040;-72
2022/12/17 21:09:13;;;;;;;58.33;36.55;;;;;;;8.26;100.00;93594.59;5088626;28;20504;-72
2022/12/17 21:11:41;;;;;;;62.83;38.38;;;;;;;8.27;100.00;93596.97;5088637;28;20075;-72
2022/12/17 21:14:10;;;;;;;48.42;31.17;;;;;;;8.32;100.00;93601.53;5089194;28;20052;-72
2022/12/17 21:16:38;;;;;;;40.05;25.45;;;;;;;8.30;100.00;93608.59;5089197;28;20044;-72
2022/12/17 21:19:06;;;;;;;32.60;22.35;;;;;;;8.33;100.00;93610.00;5089061;28;20102;-71
2022/12/17 21:21:36;;;;;;;31.05;19.55;;;;;;;8.29;100.00;93617.25;5088692;28;20090;-72
2022/12/17 21:24:05;;;;;;;27.38;18.45;;;;;;;8.22;100.00;93603.59;5089065;28;20079;-72
2022/12/17 21:26:33;;;;;;;25.58;18.40;;;;;;;8.13;100.00;93619.09;5088507;28;20044;-72
2022/12/17 21:29:01;;;;;;;28.45;19.70;;;;;;;8.06;100.00;93620.00;5089215;28;20087;-72
2022/12/17 21:31:33;;;;;;;24.27;16.80;;;;;;;8.01;100.00;93628.25;5088745;28;20121;-72
2022/12/17 21:34:01;;;;;;;26.40;17.65;;;;;;;8.15;100.00;93627.38;5090980;28;20129;-72
2022/12/17 21:36:29;;;;;;;35.08;24.95;;;;;;;7.97;100.00;93632.13;5093067;28;20044;-72
2022/12/17 21:38:57;;;;;;;31.15;22.95;;;;;;;7.99;100.00;93630.97;5092867;28;20075;-72
2022/12/17 21:41:27;;;;;;;27.63;18.67;;;;;;;7.91;100.00;93638.00;5078862;28;20044;-72
2022/12/17 21:43:54;;;;;;;25.38;18.58;;;;;;;8.05;100.00;93642.25;5088679;28;20443;-72
2022/12/17 21:46:21;;;;;;;24.60;18.52;;;;;;;8.08;100.00;93648.75;5092538;28;20504;-72
2022/12/17 21:48:48;;;;;;;21.52;16.52;;;;;;;8.06;100.00;93648.94;5092557;28;20056;-71
2022/12/17 21:51:15;;;;;;;21.35;17.92;;;;;;;8.14;100.00;93653.13;5092005;28;20496;-71
2022/12/17 21:53:42;;;;;;;22.02;18.10;;;;;;;8.19;100.00;93645.69;5092469;28;20061;-71
2022/12/17 21:56:11;;;;;;;20.95;15.95;;;;;;;7.92;100.00;93652.34;5092573;28;20450;-71
2022/12/17 21:58:39;;;;;;;25.98;17.92;;;;;;;8.04;100.00;93658.56;5092064;28;20047;-71
2022/12/17 22:01:11;;;;;;;21.02;17.00;;;;;;;8.02;100.00;93656.19;5092506;28;20097;-71
2022/12/17 22:03:38;;;;;;;17.35;13.20;;;;;;;8.06;100.00;93655.84;5092315;28;20043;-71
2022/12/17 22:06:07;;;;;;;17.58;12.63;;;;;;;7.61;100.00;93652.44;5092120;28;20549;-71
2022/12/17 22:08:34;;;;;;;16.67;12.93;;;;;;;7.46;100.00;93661.91;5092026;28;20408;-72
2022/12/17 22:11:08;;;;;;;12.25;10.50;;;;;;;7.45;100.00;93658.53;5092294;28;20048;-71
2022/12/17 22:16:22;;;;;;;;;;;;;;;7.31;100.00;93661.94;5092390;28;20462;-72
2022/12/17 22:18:48;;;;;;;16.85;13.88;;;;;;;7.29;100.00;93661.31;5092098;28;19920;-72
2022/12/17 22:21:16;;;;;;;17.77;14.30;;;;;;;7.35;100.00;93665.69;5091594;28;20553;-72
2022/12/17 22:23:45;;;;;;;22.02;18.48;;;;;;;7.48;100.00;93677.84;5091758;28;20135;-72
2022/12/17 22:26:12;;;;;;;16.92;13.57;;;;;;;7.47;100.00;93674.50;5091346;28;20048;-71
2022/12/17 22:28:39;;;;;;;17.20;13.75;;;;;;;7.61;100.00;93672.09;5091939;28;20101;-71
2022/12/17 22:33:52;;;;;;;16.60;12.43;;;;;;;7.68;100.00;93661.97;5091824;28;20412;-72
2022/12/17 22:36:18;;;;;;;16.50;12.23;;;;;;;7.72;100.00;93668.28;5091469;28;20056;-72
2022/12/17 22:38:45;;;;;;;15.43;12.88;;;;;;;7.81;100.00;93671.50;5091890;28;20465;-72
2022/12/17 22:43:28;;;;;;;13.95;10.70;;;;;;;7.83;100.00;93685.69;5091247;28;20507;-72
2022/12/17 22:44:00;;;;;;;12.95;10.63;;;;;;;7.74;100.00;93692.69;5091477;28;20059;-72
2022/12/17 22:46:27;;;;;;;12.13;9.55;;;;;;;7.66;100.00;93689.44;5090755;28;20419;-72
2022/12/17 22:48:56;;;;;;;10.90;8.60;;;;;;;7.45;100.00;93688.44;5091017;28;20132;-72
2022/12/17 22:51:23;;;;;;;11.60;9.38;;;;;;;7.34;100.00;93690.47;5091587;28;20052;-72
2022/12/17 22:53:50;;;;;;;11.95;9.05;;;;;;;7.43;100.00;93688.63;5091173;28;20040;-72
2022/12/17 22:56:17;;;;;;;14.38;10.00;;;;;;;7.53;100.00;93690.09;5091210;28;20040;-71
2022/12/17 22:58:44;;;;;;;11.38;9.38;;;;;;;7.47;100.00;93686.50;5091219;28;20561;-72
2022/12/17 23:01:11;;;;;;;11.30;8.93;;;;;;;7.46;100.00;93693.34;5091285;28;20148;-72
2022/12/17 23:03:38;;;;;;;10.73;8.10;;;;;;;7.40;100.00;93693.28;5091293;28;20072;-72
2022/12/17 23:06:11;;;;;;;10.93;8.48;;;;;;;7.41;100.00;93697.44;5090987;28;20044;-72
2022/12/17 23:08:38;;;;;;;12.35;9.32;;;;;;;7.25;100.00;93698.38;5090774;28;20048;-71
2022/12/17 23:11:09;;;;;;;9.75;7.47;;;;;;;7.28;100.00;93709.06;5090862;28;20083;-73
2022/12/17 23:13:36;;;;;;;9.88;6.63;;;;;;;7.13;100.00;93719.28;5090682;28;20492;-72
2022/12/17 23:16:03;;;;;;;9.50;6.85;;;;;;;7.09;100.00;93718.81;5090819;28;20093;-71
2022/12/17 23:18:31;;;;;;;6.88;6.05;;;;;;;7.14;100.00;93727.75;5090924;28;20082;-71
2022/12/17 23:21:06;;;;;;;8.35;6.38;;;;;;;6.93;100.00;93714.69;5091235;28;20085;-71
2022/12/17 23:23:34;;;;;;;9.23;5.95;;;;;;;7.00;100.00;93729.31;5090958;28;20052;-71
2022/12/17 23:26:07;;;;;;;7.60;5.45;;;;;;;6.62;100.00;93733.44;5090902;28;20458;-71
2022/12/17 23:28:33;;;;;;;5.65;4.82;;;;;;;6.72;100.00;93733.22;5090669;28;20052;-71
2022/12/17 23:31:06;;;;;;;8.40;6.32;;;;;;;6.68;100.00;93737.09;5090906;28;20046;-71
2022/12/17 23:33:33;;;;;;;7.85;5.97;;;;;;;6.54;100.00;93736.09;5090506;28;20048;-71
2022/12/17 23:36:03;;;;;;;8.98;7.32;;;;;;;6.38;100.00;93747.19;5090823;28;20052;-71
2022/12/17 23:38:29;;;;;;;10.90;9.25;;;;;;;6.38;100.00;93745.44;5090602;28;20052;-71
2022/12/17 23:41:02;;;;;;;9.07;6.65;;;;;;;6.15;100.00;93737.75;5080029;28;20386;-72
2022/12/17 23:43:29;;;;;;;7.93;6.63;;;;;;;6.30;100.00;93758.25;5088364;28;20434;-71
2022/12/17 23:45:56;;;;;;;13.02;8.27;;;;;;;6.37;100.00;93760.91;5090675;28;20108;-72
2022/12/17 23:48:23;;;;;;;13.32;9.90;;;;;;;6.31;100.00;93757.28;5089992;28;20480;-72
2022/12/17 23:50:49;;;;;;;15.68;9.30;;;;;;;6.05;100.00;93760.94;5090267;28;20093;-72
2022/12/17 23:53:16;;;;;;;15.80;9.60;;;;;;;5.92;100.00;93743.59;5090058;28;20047;-72
2022/12/17 23:55:43;;;;;;;11.40;7.72;;;;;;;5.81;100.00;93760.06;5090141;28;20048;-72
2022/12/17 23:58:11;;;;;;;12.63;7.63;;;;;;;5.66;100.00;93744.69;5089931;28;20040;-72
